Time;durP1;ratioP1;P1;durP2;ratioP2;P2;SDS_P1;SDS_P2;PMS_P1;PMS_P2;Temp;Humidity;BMP_temperature;BMP_pressure;BME280_temperature;BME280_humidity;BME280_pressure;Samples;Min_cycle;Max_cycle;Signal;HPM_P1;HPM_P2
2023/01/30 00:01:06;;;;;;;;;;;0.80;91.60;;;;;;4943631;28;19934;-74
2023/01/30 00:03:33;;;;;;;;;;;0.80;91.70;;;;;;4945702;28;19985;-74
2023/01/30 00:05:59;;;;;;;;;;;0.80;91.70;;;;;;4943354;28;19945;-74
2023/01/30 00:08:26;;;;;;;;;;;0.90;91.70;;;;;;4944469;28;19937;-74
2023/01/30 00:10:52;;;;;;;;;;;0.80;92.00;;;;;;4938823;28;19945;-75
2023/01/30 00:13:19;;;;;;;;;;;0.80;91.70;;;;;;4946196;28;20499;-74
2023/01/30 00:15:47;;;;;;;;;;;0.80;91.70;;;;;;4944208;28;19937;-74
2023/01/30 00:18:14;;;;;;;;;;;0.80;91.80;;;;;;4946953;28;19930;-74
2023/01/30 00:20:40;;;;;;;;;;;0.80;91.80;;;;;;4943842;28;19930;-74
2023/01/30 00:23:07;;;;;;;;;;;0.80;91.80;;;;;;4944776;28;20340;-74
2023/01/30 00:25:33;;;;;;;;;;;0.80;91.80;;;;;;4945365;28;19934;-74
2023/01/30 00:28:00;;;;;;;;;;;0.80;91.80;;;;;;4943147;28;19977;-74
2023/01/30 00:30:27;;;;;;;;;;;0.80;91.80;;;;;;4943960;28;20348;-75
2023/01/30 00:32:55;;;;;;;;;;;0.80;91.80;;;;;;4944281;28;20352;-74
2023/01/30 00:35:27;;;;;;;;;;;0.70;91.80;;;;;;4946232;28;19934;-74
2023/01/30 00:37:54;;;;;;;;;;;0.80;91.90;;;;;;4941980;28;19930;-74
2023/01/30 00:40:21;;;;;;;;;;;0.70;91.80;;;;;;4935722;28;19930;-74
2023/01/30 00:48:16;;;;;;;;;;;0.70;91.90;;;;;;4942678;28;20357;-74
2023/01/30 00:50:43;;;;;;;;;;;0.70;91.90;;;;;;4940143;28;19964;-73
2023/01/30 00:53:10;;;;;;;;;;;0.70;91.90;;;;;;4945423;28;19938;-74
2023/01/30 00:55:36;;;;;;;;;;;0.70;91.90;;;;;;4943235;28;19931;-74
2023/01/30 00:58:03;;;;;;;;;;;0.70;91.90;;;;;;4945704;28;20641;-74
2023/01/30 01:00:30;;;;;;;;;;;0.70;91.90;;;;;;4938704;28;19938;-74
2023/01/30 01:02:56;;;;;;;;;;;0.70;91.90;;;;;;4943722;28;19938;-73
2023/01/30 01:05:24;;;;;;;;;;;0.70;91.90;;;;;;4940117;28;20005;-74
2023/01/30 01:07:50;;;;;;;;;;;0.70;92.00;;;;;;4941208;28;19937;-74
2023/01/30 01:10:17;;;;;;;;;;;0.70;92.00;;;;;;4946916;28;19942;-74
2023/01/30 01:12:44;;;;;;;;;;;0.70;92.00;;;;;;4946078;28;20384;-74
2023/01/30 01:15:11;;;;;;;;;;;0.70;92.00;;;;;;4938377;28;20038;-73
2023/01/30 01:17:38;;;;;;;;;;;0.70;92.00;;;;;;4935460;28;20018;-73
2023/01/30 01:20:05;;;;;;;;;;;0.60;92.00;;;;;;4943444;28;20381;-74
2023/01/30 01:22:33;;;;;;;;;;;0.70;92.00;;;;;;4940513;28;19934;-74
2023/01/30 01:25:00;;;;;;;;;;;0.60;92.00;;;;;;4940671;28;19979;-74
2023/01/30 01:27:27;;;;;;;;;;;0.60;92.00;;;;;;4944413;28;19930;-74
2023/01/30 01:29:53;;;;;;;;;;;0.60;92.10;;;;;;4940637;28;20002;-74
2023/01/30 01:32:20;;;;;;;;;;;0.60;92.10;;;;;;4941644;28;19930;-74
2023/01/30 01:34:46;;;;;;;;;;;0.60;92.10;;;;;;4942490;28;19931;-74
2023/01/30 01:37:13;;;;;;;;;;;0.60;92.20;;;;;;4944628;28;19934;-73
2023/01/30 01:42:26;;;;;;;;;;;0.60;92.20;;;;;;4942780;28;19942;-73
2023/01/30 01:45:02;;;;;;;;;;;0.60;92.30;;;;;;4942787;28;20000;-74
2023/01/30 01:47:29;;;;;;;;;;;0.60;92.30;;;;;;4946995;28;19938;-73
2023/01/30 01:49:56;;;;;;;;;;;0.60;92.30;;;;;;4945628;28;19935;-73
2023/01/30 01:52:22;;;;;;;;;;;0.60;92.30;;;;;;4942174;28;19937;-76
2023/01/30 01:54:52;;;;;;;;;;;0.50;92.30;;;;;;4947579;28;19931;-74
2023/01/30 01:57:21;;;;;;;;;;;0.60;92.30;;;;;;4945546;28;20010;-74
2023/01/30 01:59:49;;;;;;;;;;;0.60;92.30;;;;;;4948641;28;19930;-74
2023/01/30 02:02:16;;;;;;;;;;;0.50;92.30;;;;;;4943585;28;19930;-74
2023/01/30 02:05:05;;;;;;;;;;;0.60;92.30;;;;;;4948648;28;19934;-74
2023/01/30 02:07:34;;;;;;;;;;;0.60;92.30;;;;;;4948267;28;19973;-75
2023/01/30 02:10:03;;;;;;;;;;;0.60;92.30;;;;;;4938937;28;20472;-74
2023/01/30 02:12:30;;;;;;;;;;;0.60;92.30;;;;;;4945547;28;19930;-75
2023/01/30 02:14:57;;;;;;;;;;;0.60;92.40;;;;;;4944628;28;19989;-74
2023/01/30 02:17:24;;;;;;;;;;;0.60;92.40;;;;;;4950346;28;20348;-74
2023/01/30 02:19:53;;;;;;;;;;;0.60;92.30;;;;;;4947484;28;19937;-74
2023/01/30 02:22:28;;;;;;;;;;;0.60;92.30;;;;;;4944521;28;19934;-74
2023/01/30 02:25:11;;;;;;;;;;;0.60;92.30;;;;;;4947316;28;20443;-74
2023/01/30 02:27:52;;;;;;;;;;;0.60;92.30;;;;;;4946429;28;19934;-74
2023/01/30 02:30:43;;;;;;;;;;;0.60;92.30;;;;;;4945782;28;19981;-74
2023/01/30 02:33:13;;;;;;;;;;;0.60;92.30;;;;;;4944950;28;20397;-74
2023/01/30 02:35:43;;;;;;;;;;;0.60;92.30;;;;;;4945791;28;20277;-74
2023/01/30 02:38:16;;;;;;;;;;;0.70;92.30;;;;;;4943354;28;20348;-75
2023/01/30 02:40:48;;;;;;;;;;;0.60;92.30;;;;;;4952864;28;19942;-75
2023/01/30 02:43:18;;;;;;;;;;;0.60;92.30;;;;;;4946598;28;20013;-72
2023/01/30 02:45:52;;;;;;;;;;;0.70;92.30;;;;;;4946901;28;19930;-75
2023/01/30 02:48:21;;;;;;;;;;;0.70;92.30;;;;;;4942803;28;19930;-75
2023/01/30 02:50:50;;;;;;;;;;;0.70;92.30;;;;;;4945082;28;19934;-74
2023/01/30 02:53:17;;;;;;;;;;;0.70;92.30;;;;;;4946512;28;20017;-74
2023/01/30 02:55:43;;;;;;;;;;;0.70;92.30;;;;;;4945954;28;19957;-74
2023/01/30 02:58:10;;;;;;;;;;;0.60;92.30;;;;;;4949735;28;20463;-73
2023/01/30 03:00:48;;;;;;;;;;;0.70;92.30;;;;;;4947244;28;19937;-75
2023/01/30 03:03:24;;;;;;;;;;;0.60;92.60;;;;;;4945239;28;19942;-74
2023/01/30 03:05:59;;;;;;;;;;;0.60;92.30;;;;;;4944375;28;20017;-74
2023/01/30 03:08:30;;;;;;;;;;;0.60;92.60;;;;;;4944169;28;19985;-74
2023/01/30 03:10:59;;;;;;;;;;;0.60;92.30;;;;;;4937335;28;19942;-73
2023/01/30 03:13:29;;;;;;;;;;;0.60;92.40;;;;;;4946470;28;20845;-74
2023/01/30 03:15:59;;;;;;;;;;;0.60;92.40;;;;;;4949226;28;19930;-74
2023/01/30 03:18:27;;;;;;;;;;;0.60;92.40;;;;;;4942625;28;20491;-74
2023/01/30 03:20:54;;;;;;;;;;;0.60;92.40;;;;;;4944602;28;19941;-74
2023/01/30 03:23:21;;;;;;;;;;;0.70;92.40;;;;;;4943019;28;19934;-73
2023/01/30 03:25:48;;;;;;;;;;;0.70;92.40;;;;;;4945487;28;19930;-71
2023/01/30 03:28:18;;;;;;;;;;;0.60;92.40;;;;;;4940991;28;20385;-72
2023/01/30 03:30:44;;;;;;;;;;;0.70;92.40;;;;;;4946434;28;20302;-74
2023/01/30 03:33:11;;;;;;;;;;;0.60;92.40;;;;;;4945096;28;19930;-74
2023/01/30 03:35:38;;;;;;;;;;;0.70;92.40;;;;;;4942661;28;19934;-74
2023/01/30 03:38:05;;;;;;;;;;;0.70;92.40;;;;;;4942268;28;20443;-74
2023/01/30 03:40:32;;;;;;;;;;;0.70;92.40;;;;;;4946884;28;19937;-72
2023/01/30 03:42:58;;;;;;;;;;;0.70;92.40;;;;;;4944398;28;19930;-74
2023/01/30 03:45:25;;;;;;;;;;;0.70;92.30;;;;;;4939844;28;19934;-74
2023/01/30 03:47:51;;;;;;;;;;;0.70;92.30;;;;;;4944746;28;20404;-75
2023/01/30 03:50:18;;;;;;;;;;;0.70;92.30;;;;;;4945911;28;20026;-72
2023/01/30 03:52:46;;;;;;;;;;;0.70;92.30;;;;;;4946171;28;20048;-74
2023/01/30 03:55:12;;;;;;;;;;;0.70;92.30;;;;;;4947276;28;19933;-72
2023/01/30 03:57:39;;;;;;;;;;;0.70;92.30;;;;;;4944353;28;19990;-75
2023/01/30 04:00:06;;;;;;;;;;;0.70;92.30;;;;;;4946100;28;19941;-73
2023/01/30 04:02:32;;;;;;;;;;;0.70;92.30;;;;;;4940126;28;19923;-72
2023/01/30 04:04:59;;;;;;;;;;;0.70;92.40;;;;;;4939567;28;20333;-74
2023/01/30 04:07:28;;;;;;;;;;;0.70;92.30;;;;;;4945663;28;19930;-74
2023/01/30 04:09:56;;;;;;;;;;;0.70;92.40;;;;;;4944255;28;19977;-73
2023/01/30 04:12:22;;;;;;;;;;;0.70;92.40;;;;;;4945593;28;19934;-74
2023/01/30 04:14:49;;;;;;;;;;;0.80;92.40;;;;;;4946476;28;19930;-74
2023/01/30 04:17:15;;;;;;;;;;;0.80;92.40;;;;;;4939836;28;20392;-73
2023/01/30 04:19:42;;;;;;;;;;;0.80;92.40;;;;;;4948849;28;19988;-74
2023/01/30 04:22:08;;;;;;;;;;;0.70;92.30;;;;;;4943366;28;19926;-74
2023/01/30 04:24:35;;;;;;;;;;;0.80;92.40;;;;;;4942378;28;19976;-73
2023/01/30 04:27:03;;;;;;;;;;;0.80;92.40;;;;;;4943570;28;19934;-71
2023/01/30 04:29:29;;;;;;;;;;;0.80;92.40;;;;;;4953383;23;19930;-75
2023/01/30 04:31:56;;;;;;;;;;;0.80;92.40;;;;;;4942256;28;20091;-74
2023/01/30 04:34:22;;;;;;;;;;;0.80;92.40;;;;;;4945100;28;20006;-76
2023/01/30 04:36:49;;;;;;;;;;;0.70;92.30;;;;;;4945818;28;20290;-73
2023/01/30 04:39:15;;;;;;;;;;;0.70;92.30;;;;;;4948862;28;20451;-74
2023/01/30 04:41:42;;;;;;;;;;;0.80;92.40;;;;;;4945984;28;19937;-74
2023/01/30 04:44:10;;;;;;;;;;;0.80;92.40;;;;;;4952576;28;19930;-75
2023/01/30 04:46:36;;;;;;;;;;;0.80;92.40;;;;;;4969147;28;19930;-75
2023/01/30 04:49:03;;;;;;;;;;;0.80;92.40;;;;;;4988025;28;19933;-75
2023/01/30 04:51:29;;;;;;;;;;;0.80;92.40;;;;;;4990273;28;19937;-73
2023/01/30 04:53:56;;;;;;;;;;;0.80;92.40;;;;;;4985827;28;19940;-75
2023/01/30 04:56:22;;;;;;;;;;;0.80;92.40;;;;;;4987810;28;19969;-74
2023/01/30 04:58:49;;;;;;;;;;;0.80;92.40;;;;;;4985127;28;19933;-74
2023/01/30 05:01:21;;;;;;;;;;;0.80;92.40;;;;;;4989461;28;19934;-75
2023/01/30 05:03:49;;;;;;;;;;;0.80;92.40;;;;;;4987866;28;19977;-74
2023/01/30 05:06:15;;;;;;;;;;;0.80;92.40;;;;;;4992977;28;19934;-74
2023/01/30 05:08:42;;;;;;;;;;;0.80;92.40;;;;;;4986453;28;20553;-75
2023/01/30 05:11:08;;;;;;;;;;;0.80;92.40;;;;;;4988997;28;19929;-75
2023/01/30 05:13:35;;;;;;;;;;;0.90;92.40;;;;;;4989511;28;19988;-74
2023/01/30 05:16:01;;;;;;;;;;;0.80;92.40;;;;;;4988618;28;19930;-74
2023/01/30 05:18:30;;;;;;;;;;;0.80;92.40;;;;;;4981229;28;19934;-74
2023/01/30 05:21:02;;;;;;;;;;;0.80;92.40;;;;;;4990516;28;19930;-75
2023/01/30 05:23:29;;;;;;;;;;;0.80;92.40;;;;;;4992596;28;20392;-75
2023/01/30 05:25:55;;;;;;;;;;;0.80;92.40;;;;;;4981216;28;19933;-75
2023/01/30 05:28:22;;;;;;;;;;;0.80;92.40;;;;;;4923319;28;1742482;-74
2023/01/30 05:30:48;;;;;;;;;;;0.90;92.40;;;;;;4992932;28;19930;-74
2023/01/30 05:33:15;;;;;;;;;;;0.80;92.40;;;;;;4988465;28;19937;-75
2023/01/30 05:35:47;;;;;;;;;;;0.80;92.40;;;;;;4989408;28;19933;-75
2023/01/30 05:38:14;;;;;;;;;;;0.80;92.40;;;;;;4989817;28;19929;-76
2023/01/30 05:40:40;;;;;;;;;;;0.80;92.40;;;;;;4993593;28;19937;-74
2023/01/30 05:43:08;;;;;;;;;;;0.90;92.40;;;;;;4994752;28;19930;-73
2023/01/30 05:45:35;;;;;;;;;;;0.90;92.50;;;;;;4994145;28;20046;-71
2023/01/30 05:48:01;;;;;;;;;;;0.80;92.50;;;;;;4989146;28;19936;-75
2023/01/30 05:50:28;;;;;;;;;;;0.80;92.50;;;;;;4993568;28;19941;-73
2023/01/30 05:52:56;;;;;;;;;;;0.80;92.50;;;;;;4990259;28;19980;-74
2023/01/30 05:55:22;;;;;;;;;;;0.80;92.50;;;;;;4989155;28;19936;-75
2023/01/30 05:57:49;;;;;;;;;;;0.90;92.60;;;;;;4994550;28;19930;-74
2023/01/30 06:00:16;;;;;;;;;;;0.80;92.50;;;;;;4993587;28;19929;-74
2023/01/30 06:02:42;;;;;;;;;;;0.90;92.60;;;;;;4991276;28;19951;-74
2023/01/30 06:05:09;;;;;;;;;;;0.90;92.60;;;;;;4993575;28;19964;-74
2023/01/30 06:07:35;;;;;;;;;;;0.90;92.60;;;;;;4995287;28;19936;-73
2023/01/30 06:10:04;;;;;;;;;;;0.90;92.70;;;;;;4991185;28;19929;-75
2023/01/30 06:12:30;;;;;;;;;;;0.90;92.70;;;;;;4990965;28;19930;-74
2023/01/30 06:14:57;;;;;;;;;;;0.90;92.70;;;;;;4996066;28;19933;-74
2023/01/30 06:17:23;;;;;;;;;;;0.90;92.70;;;;;;4988286;28;19944;-75
2023/01/30 06:19:50;;;;;;;;;;;0.90;92.80;;;;;;4987862;28;20320;-74
2023/01/30 06:22:16;;;;;;;;;;;0.90;92.90;;;;;;4987471;28;19930;-73
2023/01/30 06:24:43;;;;;;;;;;;0.90;92.90;;;;;;4992325;28;19984;-73
2023/01/30 06:27:11;;;;;;;;;;;0.90;93.00;;;;;;4987667;28;20315;-74
2023/01/30 06:29:37;;;;;;;;;;;0.90;93.10;;;;;;4992195;28;19984;-74
2023/01/30 06:32:04;;;;;;;;;;;0.90;93.10;;;;;;4995753;28;19934;-74
2023/01/30 06:34:30;;;;;;;;;;;0.90;93.20;;;;;;4999812;28;19935;-73
2023/01/30 06:36:57;;;;;;;;;;;0.90;93.20;;;;;;4992215;28;19933;-75
2023/01/30 06:39:23;;;;;;;;;;;0.90;93.20;;;;;;4998422;28;19983;-73
2023/01/30 06:41:50;;;;;;;;;;;0.90;93.30;;;;;;4993175;28;20504;-75
2023/01/30 06:44:18;;;;;;;;;;;0.90;93.30;;;;;;4994656;28;19930;-73
2023/01/30 06:46:44;;;;;;;;;;;0.90;93.40;;;;;;4992153;28;19929;-71
2023/01/30 06:49:11;;;;;;;;;;;0.90;93.40;;;;;;4992770;28;19984;-73
2023/01/30 06:51:37;;;;;;;;;;;0.90;93.50;;;;;;4987683;28;20384;-74
2023/01/30 06:54:04;;;;;;;;;;;1.00;93.50;;;;;;4995195;28;19936;-74
2023/01/30 06:56:31;;;;;;;;;;;1.00;93.60;;;;;;4987262;28;20374;-74
2023/01/30 06:58:57;;;;;;;;;;;1.00;93.60;;;;;;4993796;28;19984;-71
2023/01/30 07:01:25;;;;;;;;;;;0.90;93.60;;;;;;4994321;28;19940;-74
2023/01/30 07:03:51;;;;;;;;;;;0.90;93.60;;;;;;4987732;28;19930;-73
2023/01/30 07:06:18;;;;;;;;;;;0.90;93.60;;;;;;4998800;28;20490;-74
2023/01/30 07:08:45;;;;;;;;;;;0.90;93.50;;;;;;4997417;28;19939;-73
2023/01/30 07:11:11;;;;;;;;;;;1.00;93.60;;;;;;4989303;28;19936;-72
2023/01/30 07:13:38;;;;;;;;;;;1.00;93.60;;;;;;4990750;28;19929;-72
2023/01/30 07:16:05;;;;;;;;;;;1.00;93.60;;;;;;4990180;28;20617;-72
2023/01/30 07:18:33;;;;;;;;;;;1.00;93.50;;;;;;4986655;28;20427;-74
2023/01/30 07:20:59;;;;;;;;;;;1.00;93.50;;;;;;4985275;28;19945;-78
2023/01/30 07:23:26;;;;;;;;;;;1.00;93.60;;;;;;4986120;28;20450;-76
2023/01/30 07:25:53;;;;;;;;;;;1.00;93.60;;;;;;4982327;28;20354;-79
2023/01/30 07:28:20;;;;;;;;;;;1.00;93.60;;;;;;4981981;28;20610;-77
2023/01/30 07:30:46;;;;;;;;;;;1.00;93.60;;;;;;4994562;28;19933;-77
2023/01/30 07:33:13;;;;;;;;;;;1.00;93.60;;;;;;4998839;28;19996;-80
2023/01/30 07:35:40;;;;;;;;;;;1.00;93.70;;;;;;4985536;28;19940;-77
2023/01/30 07:38:07;;;;;;;;;;;1.00;93.70;;;;;;4982586;28;19941;-77
2023/01/30 07:40:34;;;;;;;;;;;1.00;93.70;;;;;;4994363;28;19934;-76
2023/01/30 07:43:02;;;;;;;;;;;1.00;93.70;;;;;;5002496;28;19929;-78
2023/01/30 07:45:29;;;;;;;;;;;1.00;93.70;;;;;;4994428;28;19942;-76
2023/01/30 07:47:56;;;;;;;;;;;1.00;93.80;;;;;;4980451;28;19938;-77
2023/01/30 07:50:22;;;;;;;;;;;1.00;93.80;;;;;;4987816;28;19930;-77
2023/01/30 07:52:50;;;;;;;;;;;1.00;94.00;;;;;;4987672;28;19949;-77
2023/01/30 07:55:17;;;;;;;;;;;1.00;94.10;;;;;;4993744;28;19933;-78
2023/01/30 07:57:43;;;;;;;;;;;1.00;94.20;;;;;;4990282;28;19930;-78
2023/01/30 08:00:11;;;;;;;;;;;1.00;94.20;;;;;;4991092;28;19930;-78
2023/01/30 08:02:37;;;;;;;;;;;1.00;94.30;;;;;;4986071;28;19944;-79
2023/01/30 08:05:04;;;;;;;;;;;1.00;94.20;;;;;;4989990;28;19929;-76
2023/01/30 08:07:31;;;;;;;;;;;1.10;94.20;;;;;;4990037;28;19992;-77
2023/01/30 08:09:59;;;;;;;;;;;1.00;94.20;;;;;;4987174;28;19940;-79
2023/01/30 08:12:25;;;;;;;;;;;1.10;94.20;;;;;;4992050;28;19937;-77
2023/01/30 08:14:52;;;;;;;;;;;1.10;94.20;;;;;;4995545;28;19929;-79
2023/01/30 08:17:18;;;;;;;;;;;1.10;94.20;;;;;;4987006;28;19981;-77
2023/01/30 08:19:45;;;;;;;;;;;1.10;94.30;;;;;;4988811;28;19930;-77
2023/01/30 08:22:11;;;;;;;;;;;1.10;94.30;;;;;;4986381;28;19949;-78
2023/01/30 08:24:38;;;;;;;;;;;1.10;94.30;;;;;;4988787;28;19960;-78
2023/01/30 08:27:06;;;;;;;;;;;1.10;94.30;;;;;;4984916;28;20366;-79
2023/01/30 08:29:32;;;;;;;;;;;1.10;94.30;;;;;;4990917;28;19960;-77
2023/01/30 08:31:59;;;;;;;;;;;1.10;94.30;;;;;;4987822;28;20327;-76
2023/01/30 08:34:26;;;;;;;;;;;1.10;94.30;;;;;;4991672;28;19934;-76
2023/01/30 08:36:53;;;;;;;;;;;1.10;94.40;;;;;;4983042;28;19936;-78
2023/01/30 08:39:19;;;;;;;;;;;1.10;94.40;;;;;;4988231;28;19937;-78
2023/01/30 08:41:46;;;;;;;;;;;1.20;94.80;;;;;;4995308;28;19940;-78
2023/01/30 08:44:14;;;;;;;;;;;1.10;94.50;;;;;;4997282;28;20616;-78
2023/01/30 08:46:40;;;;;;;;;;;1.10;94.50;;;;;;4993906;28;19933;-78
2023/01/30 08:49:07;;;;;;;;;;;1.20;94.50;;;;;;4989418;28;19934;-77
2023/01/30 08:51:33;;;;;;;;;;;1.20;94.50;;;;;;4993712;28;19937;-78
2023/01/30 08:54:00;;;;;;;;;;;1.20;94.60;;;;;;4987944;28;19940;-78
2023/01/30 08:56:26;;;;;;;;;;;1.20;94.50;;;;;;4986511;28;19941;-77
2023/01/30 08:58:53;;;;;;;;;;;1.20;94.50;;;;;;4998514;28;20246;-76
2023/01/30 09:01:21;;;;;;;;;;;1.20;94.50;;;;;;4987096;28;20598;-77
2023/01/30 09:03:48;;;;;;;;;;;1.20;94.50;;;;;;4986853;28;20307;-77
2023/01/30 09:06:14;;;;;;;;;;;1.20;94.50;;;;;;4990638;28;19930;-80
2023/01/30 09:08:41;;;;;;;;;;;1.20;94.60;;;;;;4995601;28;19933;-78
2023/01/30 09:11:07;;;;;;;;;;;1.20;94.60;;;;;;4983004;28;20285;-78
2023/01/30 09:13:34;;;;;;;;;;;1.20;94.60;;;;;;4988183;28;19929;-79
2023/01/30 09:16:01;;;;;;;;;;;1.30;94.70;;;;;;4987071;28;20324;-77
2023/01/30 09:18:28;;;;;;;;;;;1.30;94.70;;;;;;4988134;28;19933;-78
2023/01/30 09:21:01;;;;;;;;;;;1.30;94.70;;;;;;4988732;28;20395;-78
2023/01/30 09:23:28;;;;;;;;;;;1.40;94.80;;;;;;4987891;28;19933;-78
2023/01/30 09:25:54;;;;;;;;;;;1.30;94.70;;;;;;4988131;28;20000;-78
2023/01/30 09:28:21;;;;;;;;;;;1.40;94.70;;;;;;4986740;28;20352;-77
2023/01/30 09:30:48;;;;;;;;;;;1.30;94.70;;;;;;4993293;28;19976;-78
2023/01/30 09:33:15;;;;;;;;;;;1.40;94.70;;;;;;4991573;28;19933;-79
2023/01/30 09:35:43;;;;;;;;;;;1.40;94.70;;;;;;4989690;28;20212;-79
2023/01/30 09:38:09;;;;;;;;;;;1.40;94.70;;;;;;4991027;28;20350;-79
2023/01/30 09:40:38;;;;;;;;;;;1.40;94.60;;;;;;4992609;28;19930;-78
2023/01/30 09:43:13;;;;;;;;;;;1.40;94.60;;;;;;4987515;28;19929;-78
2023/01/30 09:45:44;;;;;;;;;;;1.40;94.60;;;;;;4986759;28;19930;-78
2023/01/30 09:48:16;;;;;;;;;;;1.40;94.60;;;;;;4987947;28;19941;-78
2023/01/30 09:51:06;;;;;;;;;;;1.40;94.60;;;;;;4991352;28;19937;-79
2023/01/30 09:53:38;;;;;;;;;;;1.40;94.60;;;;;;4974152;28;20021;-78
2023/01/30 09:56:05;;;;;;;;;;;1.50;94.60;;;;;;4987836;28;20319;-79
2023/01/30 09:58:37;;;;;;;;;;;1.50;94.60;;;;;;4985284;28;19930;-79
2023/01/30 10:01:08;;;;;;;;;;;1.50;94.60;;;;;;4985324;28;19933;-78
2023/01/30 10:03:37;;;;;;;;;;;1.50;94.60;;;;;;4987277;28;19929;-78
2023/01/30 10:06:06;;;;;;;;;;;1.50;94.70;;;;;;4992198;28;20016;-78
2023/01/30 10:08:50;;;;;;;;;;;1.50;94.80;;;;;;4980962;28;19941;-80
2023/01/30 10:11:28;;;;;;;;;;;1.50;94.80;;;;;;4985339;28;20343;-80
2023/01/30 10:14:05;;;;;;;;;;;1.50;94.90;;;;;;4986070;28;19934;-78
2023/01/30 10:16:34;;;;;;;;;;;1.50;94.90;;;;;;4986394;28;19926;-78
2023/01/30 10:19:11;;;;;;;;;;;1.50;95.00;;;;;;4991883;28;19929;-77
2023/01/30 10:21:43;;;;;;;;;;;1.50;95.00;;;;;;4986848;28;19957;-78
2023/01/30 10:24:19;;;;;;;;;;;1.50;95.20;;;;;;4990316;28;20033;-79
2023/01/30 10:26:46;;;;;;;;;;;1.60;95.30;;;;;;4992243;28;19930;-80
2023/01/30 10:29:14;;;;;;;;;;;1.60;95.50;;;;;;4996086;28;19926;-80
2023/01/30 10:31:43;;;;;;;;;;;1.60;95.60;;;;;;4979818;28;19934;-77
2023/01/30 10:34:12;;;;;;;;;;;1.60;95.60;;;;;;4988002;28;20004;-78
2023/01/30 10:36:41;;;;;;;;;;;1.60;95.60;;;;;;4989600;28;19929;-79
2023/01/30 10:39:15;;;;;;;;;;;1.60;95.60;;;;;;4990455;28;19929;-78
2023/01/30 10:41:46;;;;;;;;;;;1.60;95.60;;;;;;4966927;28;19942;-80
2023/01/30 10:44:13;;;;;;;;;;;1.60;95.70;;;;;;4986986;28;19937;-79
2023/01/30 10:46:47;;;;;;;;;;;1.60;95.80;;;;;;4996064;28;19929;-81
2023/01/30 10:49:17;;;;;;;;;;;1.70;95.80;;;;;;4986560;28;19930;-77
2023/01/30 10:51:47;;;;;;;;;;;1.70;95.80;;;;;;4995558;28;19937;-80
2023/01/30 10:54:17;;;;;;;;;;;1.70;95.90;;;;;;4993322;28;19929;-79
2023/01/30 10:56:47;;;;;;;;;;;1.70;95.90;;;;;;4986889;28;20312;-79
2023/01/30 10:59:22;;;;;;;;;;;1.70;95.80;;;;;;4993276;28;20396;-80
2023/01/30 11:01:52;;;;;;;;;;;1.70;95.80;;;;;;4988458;28;20020;-78
2023/01/30 11:04:23;;;;;;;;;;;1.70;95.80;;;;;;4983907;28;19929;-77
2023/01/30 11:06:50;;;;;;;;;;;1.80;95.90;;;;;;4988770;28;19929;-79
2023/01/30 11:09:17;;;;;;;;;;;1.80;95.90;;;;;;4985205;28;19933;-78
2023/01/30 11:11:48;;;;;;;;;;;1.80;96.00;;;;;;4997167;28;19991;-76
2023/01/30 11:14:15;;;;;;;;;;;1.80;96.10;;;;;;4990184;28;19929;-77
2023/01/30 11:16:43;;;;;;;;;;;1.80;96.20;;;;;;4986197;28;19978;-75
2023/01/30 11:19:10;;;;;;;;;;;1.80;96.30;;;;;;4989458;28;19929;-76
2023/01/30 11:21:41;;;;;;;;;;;1.80;96.30;;;;;;4988210;28;19930;-77
2023/01/30 11:24:13;;;;;;;;;;;1.80;96.30;;;;;;4989057;28;19945;-76
2023/01/30 11:26:39;;;;;;;;;;;1.90;96.40;;;;;;4985058;28;19937;-76
2023/01/30 11:29:23;;;;;;;;;;;1.90;96.50;;;;;;4995344;28;19929;-77
2023/01/30 11:31:50;;;;;;;;;;;1.90;96.60;;;;;;4989965;28;19934;-76
2023/01/30 11:34:19;;;;;;;;;;;1.90;96.60;;;;;;4987932;28;19930;-76
2023/01/30 11:36:46;;;;;;;;;;;1.90;96.60;;;;;;4992360;28;19930;-77
2023/01/30 11:39:21;;;;;;;;;;;1.90;96.60;;;;;;4989298;28;20021;-77
2023/01/30 11:41:57;;;;;;;;;;;1.90;96.60;;;;;;4991129;28;19964;-77
2023/01/30 11:44:26;;;;;;;;;;;1.90;96.60;;;;;;4992343;28;20308;-77
2023/01/30 11:46:53;;;;;;;;;;;2.00;96.70;;;;;;4989893;28;19999;-77
2023/01/30 11:49:23;;;;;;;;;;;1.90;96.80;;;;;;4988031;28;20407;-75
2023/01/30 11:51:53;;;;;;;;;;;1.90;96.90;;;;;;4990096;28;19932;-77
2023/01/30 11:54:20;;;;;;;;;;;1.90;97.10;;;;;;4998092;28;19925;-77
2023/01/30 11:56:48;;;;;;;;;;;2.00;97.20;;;;;;4983886;28;19933;-77
2023/01/30 11:59:22;;;;;;;;;;;2.00;97.20;;;;;;4995634;28;19957;-77
2023/01/30 12:01:50;;;;;;;;;;;2.00;97.30;;;;;;4988155;28;19934;-76
2023/01/30 12:04:18;;;;;;;;;;;2.00;97.30;;;;;;4993656;28;19935;-77
2023/01/30 12:06:45;;;;;;;;;;;2.00;97.30;;;;;;4987343;28;20017;-78
2023/01/30 12:09:31;;;;;;;;;;;2.00;97.30;;;;;;4990983;28;21089;-77
2023/01/30 12:11:57;;;;;;;;;;;2.00;97.20;;;;;;4986800;28;19930;-77
2023/01/30 12:14:32;;;;;;;;;;;2.00;97.20;;;;;;4989646;28;19955;-76
2023/01/30 12:17:04;;;;;;;;;;;2.00;97.20;;;;;;4982963;28;19934;-76
2023/01/30 12:19:38;;;;;;;;;;;2.00;97.30;;;;;;4987029;28;19929;-76
2023/01/30 12:22:11;;;;;;;;;;;2.00;97.40;;;;;;4988825;28;19930;-76
2023/01/30 12:24:40;;;;;;;;;;;2.10;97.50;;;;;;4984663;28;19930;-77
2023/01/30 12:27:13;;;;;;;;;;;2.00;97.50;;;;;;4987279;28;20612;-77
2023/01/30 12:29:47;;;;;;;;;;;2.00;97.50;;;;;;4987227;28;19930;-77
2023/01/30 12:32:16;;;;;;;;;;;2.10;97.60;;;;;;4985321;28;20585;-76
2023/01/30 12:34:44;;;;;;;;;;;2.00;97.60;;;;;;4992833;28;19933;-77
2023/01/30 12:37:22;;;;;;;;;;;2.00;97.70;;;;;;4984436;28;20571;-77
2023/01/30 12:39:56;;;;;;;;;;;2.00;97.70;;;;;;4984880;28;19937;-76
2023/01/30 12:42:41;;;;;;;;;;;2.10;97.70;;;;;;4984483;28;19930;-78
2023/01/30 12:45:16;;;;;;;;;;;2.10;97.80;;;;;;4986575;28;19988;-77
2023/01/30 12:47:50;;;;;;;;;;;2.10;97.80;;;;;;4985420;28;20062;-77
2023/01/30 12:50:27;;;;;;;;;;;2.10;97.80;;;;;;4993704;28;19930;-78
2023/01/30 12:53:11;;;;;;;;;;;2.10;97.80;;;;;;4993190;28;20553;-77
2023/01/30 12:55:42;;;;;;;;;;;2.10;97.80;;;;;;4986890;28;19984;-78
2023/01/30 12:58:14;;;;;;;;;;;2.10;97.90;;;;;;4986975;28;19940;-76
2023/01/30 13:00:46;;;;;;;;;;;2.10;98.00;;;;;;4987975;28;20344;-76
2023/01/30 13:03:23;;;;;;;;;;;2.10;98.00;;;;;;4984483;28;19933;-76
2023/01/30 13:05:54;;;;;;;;;;;2.10;98.00;;;;;;4991367;28;19988;-77
2023/01/30 13:08:37;;;;;;;;;;;2.10;98.00;;;;;;4988159;28;19980;-77
2023/01/30 13:11:10;;;;;;;;;;;2.10;98.00;;;;;;4989331;28;19929;-78
2023/01/30 13:13:41;;;;;;;;;;;2.10;97.90;;;;;;4989175;28;19949;-76
2023/01/30 13:16:13;;;;;;;;;;;2.10;97.90;;;;;;4982367;28;20016;-77
2023/01/30 13:18:43;;;;;;;;;;;2.10;97.90;;;;;;4983315;28;19933;-77
2023/01/30 13:21:13;;;;;;;;;;;2.10;98.00;;;;;;4990816;28;19929;-77
2023/01/30 13:23:43;;;;;;;;;;;2.10;98.10;;;;;;4994931;28;19934;-77
2023/01/30 13:26:11;;;;;;;;;;;2.10;98.30;;;;;;4989655;28;20445;-77
2023/01/30 13:28:39;;;;;;;;;;;2.10;98.20;;;;;;4991048;28;19929;-77
2023/01/30 13:31:08;;;;;;;;;;;2.10;98.20;;;;;;4984357;28;19933;-77
2023/01/30 13:33:35;;;;;;;;;;;2.10;98.20;;;;;;4986049;28;19937;-75
2023/01/30 13:36:11;;;;;;;;;;;2.10;98.20;;;;;;4992011;28;19948;-77
2023/01/30 13:38:40;;;;;;;;;;;2.10;98.30;;;;;;4995721;28;19975;-74
2023/01/30 13:41:09;;;;;;;;;;;2.10;98.30;;;;;;4998099;28;19960;-73
2023/01/30 13:43:38;;;;;;;;;;;2.20;98.20;;;;;;4992890;28;19930;-74
2023/01/30 13:46:07;;;;;;;;;;;2.10;98.20;;;;;;4995529;28;19933;-73
2023/01/30 13:48:45;;;;;;;;;;;2.20;98.30;;;;;;4988709;28;19937;-74
2023/01/30 13:51:21;;;;;;;;;;;2.20;98.30;;;;;;4992292;28;19933;-73
2023/01/30 13:53:50;;;;;;;;;;;2.20;98.40;;;;;;4997135;28;19929;-73
2023/01/30 13:56:21;;;;;;;;;;;2.20;98.40;;;;;;4993892;28;19937;-74
2023/01/30 13:58:50;;;;;;;;;;;2.20;98.40;;;;;;4992572;28;19937;-73
2023/01/30 14:01:16;;;;;;;;;;;2.20;98.40;;;;;;4991159;28;19942;-74
2023/01/30 14:03:43;;;;;;;;;;;2.20;98.40;;;;;;4984536;28;20331;-76
2023/01/30 14:06:14;;;;;;;;;;;2.20;98.40;;;;;;4997811;28;19941;-74
2023/01/30 14:08:51;;;;;;;;;;;2.20;98.50;;;;;;4988475;28;19952;-77
2023/01/30 14:11:29;;;;;;;;;;;2.20;98.60;;;;;;4992534;28;19961;-77
2023/01/30 14:13:58;;;;;;;;;;;2.20;98.80;;;;;;4999472;28;22062;-77
2023/01/30 14:16:39;;;;;;;;;;;2.20;98.90;;;;;;4983411;28;19930;-77
2023/01/30 14:19:19;;;;;;;;;;;2.30;99.00;;;;;;4987429;28;19936;-77
2023/01/30 14:21:53;;;;;;;;;;;2.20;99.00;;;;;;4990734;28;19937;-78
2023/01/30 14:24:23;;;;;;;;;;;2.20;99.00;;;;;;4997144;28;19930;-77
2023/01/30 14:27:00;;;;;;;;;;;2.20;99.00;;;;;;4993311;28;20056;-79
2023/01/30 14:29:48;;;;;;;;;;;2.30;99.10;;;;;;4990227;28;19945;-77
2023/01/30 14:32:30;;;;;;;;;;;2.30;99.00;;;;;;4986626;28;19930;-77
2023/01/30 14:35:20;;;;;;;;;;;2.30;98.90;;;;;;4994515;28;19972;-77
2023/01/30 14:37:48;;;;;;;;;;;2.30;99.00;;;;;;4988707;28;19984;-77
2023/01/30 14:40:30;;;;;;;;;;;2.30;99.00;;;;;;4993617;28;19930;-77
2023/01/30 14:43:16;;;;;;;;;;;2.30;99.10;;;;;;4992507;28;20018;-78
2023/01/30 14:45:46;;;;;;;;;;;2.30;99.20;;;;;;4987677;28;19934;-77
2023/01/30 14:48:27;;;;;;;;;;;2.30;99.30;;;;;;4983176;28;20043;-76
2023/01/30 14:51:08;;;;;;;;;;;2.30;99.30;;;;;;4995136;28;19936;-76